sensor_id;sensor_type;location;lat;lon;timestamp;P1;durP1;ratioP1;P2;durP2;ratioP2
21519;SDS011;10921;53.614;9.882;2023-04-07T00:00:37;24.08;;;18.88;;
21519;SDS011;10921;53.614;9.882;2023-04-07T00:03:03;24.50;;;18.88;;
21519;SDS011;10921;53.614;9.882;2023-04-07T00:05:32;23.90;;;19.45;;
21519;SDS011;10921;53.614;9.882;2023-04-07T00:07:59;22.10;;;17.08;;
21519;SDS011;10921;53.614;9.882;2023-04-07T00:10:25;22.20;;;18.83;;
21519;SDS011;10921;53.614;9.882;2023-04-07T00:12:52;23.80;;;18.08;;
21519;SDS011;10921;53.614;9.882;2023-04-07T00:15:18;26.30;;;19.40;;
21519;SDS011;10921;53.614;9.882;2023-04-07T00:17:45;25.83;;;19.67;;
21519;SDS011;10921;53.614;9.882;2023-04-07T00:20:12;25.45;;;19.45;;
21519;SDS011;10921;53.614;9.882;2023-04-07T00:22:39;22.15;;;18.55;;
21519;SDS011;10921;53.614;9.882;2023-04-07T00:25:06;26.80;;;18.77;;
21519;SDS011;10921;53.614;9.882;2023-04-07T00:27:35;22.08;;;17.25;;
21519;SDS011;10921;53.614;9.882;2023-04-07T00:30:01;21.67;;;18.73;;
21519;SDS011;10921;53.614;9.882;2023-04-07T00:32:29;20.08;;;17.88;;
21519;SDS011;10921;53.614;9.882;2023-04-07T00:34:55;21.33;;;19.13;;
21519;SDS011;10921;53.614;9.882;2023-04-07T00:37:22;26.65;;;19.33;;
21519;SDS011;10921;53.614;9.882;2023-04-07T00:39:50;20.30;;;17.65;;
21519;SDS011;10921;53.614;9.882;2023-04-07T00:42:17;21.48;;;18.90;;
21519;SDS011;10921;53.614;9.882;2023-04-07T00:44:44;24.40;;;18.17;;
21519;SDS011;10921;53.614;9.882;2023-04-07T00:47:11;24.05;;;18.48;;
21519;SDS011;10921;53.614;9.882;2023-04-07T00:49:37;20.33;;;18.10;;
21519;SDS011;10921;53.614;9.882;2023-04-07T00:52:04;22.13;;;19.15;;
21519;SDS011;10921;53.614;9.882;2023-04-07T00:54:32;20.42;;;17.63;;
21519;SDS011;10921;53.614;9.882;2023-04-07T00:56:58;20.42;;;18.17;;
21519;SDS011;10921;53.614;9.882;2023-04-07T00:59:27;27.38;;;19.13;;
21519;SDS011;10921;53.614;9.882;2023-04-07T01:04:26;20.55;;;18.40;;
21519;SDS011;10921;53.614;9.882;2023-04-07T01:07:02;21.13;;;18.08;;
21519;SDS011;10921;53.614;9.882;2023-04-07T01:09:38;22.05;;;18.25;;
21519;SDS011;10921;53.614;9.882;2023-04-07T01:12:14;21.55;;;18.77;;
21519;SDS011;10921;53.614;9.882;2023-04-07T01:14:49;21.30;;;18.08;;
21519;SDS011;10921;53.614;9.882;2023-04-07T01:17:18;22.90;;;18.83;;
21519;SDS011;10921;53.614;9.882;2023-04-07T01:20:01;22.50;;;18.50;;
21519;SDS011;10921;53.614;9.882;2023-04-07T01:22:39;21.63;;;18.15;;
21519;SDS011;10921;53.614;9.882;2023-04-07T01:30:44;19.58;;;17.58;;
21519;SDS011;10921;53.614;9.882;2023-04-07T01:33:12;23.55;;;19.65;;
21519;SDS011;10921;53.614;9.882;2023-04-07T01:35:40;21.52;;;19.33;;
21519;SDS011;10921;53.614;9.882;2023-04-07T01:38:08;20.20;;;17.85;;
21519;SDS011;10921;53.614;9.882;2023-04-07T01:40:37;20.00;;;17.92;;
21519;SDS011;10921;53.614;9.882;2023-04-07T01:43:04;22.10;;;18.95;;
21519;SDS011;10921;53.614;9.882;2023-04-07T01:45:33;22.98;;;19.23;;
21519;SDS011;10921;53.614;9.882;2023-04-07T01:48:03;22.25;;;19.38;;
21519;SDS011;10921;53.614;9.882;2023-04-07T01:50:31;22.05;;;19.00;;
21519;SDS011;10921;53.614;9.882;2023-04-07T01:52:58;20.55;;;17.88;;
21519;SDS011;10921;53.614;9.882;2023-04-07T01:55:26;23.05;;;18.13;;
21519;SDS011;10921;53.614;9.882;2023-04-07T01:57:53;21.17;;;18.17;;
21519;SDS011;10921;53.614;9.882;2023-04-07T02:00:20;21.13;;;17.67;;
21519;SDS011;10921;53.614;9.882;2023-04-07T02:02:47;20.15;;;17.42;;
21519;SDS011;10921;53.614;9.882;2023-04-07T02:05:18;20.15;;;17.95;;
21519;SDS011;10921;53.614;9.882;2023-04-07T02:07:57;21.02;;;17.67;;
21519;SDS011;10921;53.614;9.882;2023-04-07T02:10:27;19.83;;;17.75;;
21519;SDS011;10921;53.614;9.882;2023-04-07T02:12:55;21.30;;;18.23;;
21519;SDS011;10921;53.614;9.882;2023-04-07T02:15:23;20.13;;;18.02;;
21519;SDS011;10921;53.614;9.882;2023-04-07T02:17:52;22.23;;;17.50;;
21519;SDS011;10921;53.614;9.882;2023-04-07T02:20:21;20.30;;;17.77;;
21519;SDS011;10921;53.614;9.882;2023-04-07T02:22:49;20.00;;;17.40;;
21519;SDS011;10921;53.614;9.882;2023-04-07T02:25:26;22.88;;;19.20;;
21519;SDS011;10921;53.614;9.882;2023-04-07T02:27:54;20.08;;;17.65;;
21519;SDS011;10921;53.614;9.882;2023-04-07T02:30:22;27.92;;;18.17;;
21519;SDS011;10921;53.614;9.882;2023-04-07T02:32:49;18.55;;;16.70;;
21519;SDS011;10921;53.614;9.882;2023-04-07T02:35:16;21.40;;;17.52;;
21519;SDS011;10921;53.614;9.882;2023-04-07T02:37:44;19.10;;;17.10;;
21519;SDS011;10921;53.614;9.882;2023-04-07T02:40:11;20.77;;;16.58;;
21519;SDS011;10921;53.614;9.882;2023-04-07T02:42:38;19.10;;;17.20;;
21519;SDS011;10921;53.614;9.882;2023-04-07T02:45:05;18.88;;;16.88;;
21519;SDS011;10921;53.614;9.882;2023-04-07T02:47:33;19.48;;;16.95;;
21519;SDS011;10921;53.614;9.882;2023-04-07T02:50:00;18.25;;;15.98;;
21519;SDS011;10921;53.614;9.882;2023-04-07T02:52:27;17.77;;;15.98;;
21519;SDS011;10921;53.614;9.882;2023-04-07T02:54:53;19.33;;;16.40;;
21519;SDS011;10921;53.614;9.882;2023-04-07T02:57:20;18.70;;;16.80;;
21519;SDS011;10921;53.614;9.882;2023-04-07T02:59:47;21.08;;;16.83;;
21519;SDS011;10921;53.614;9.882;2023-04-07T03:02:13;20.70;;;16.60;;
21519;SDS011;10921;53.614;9.882;2023-04-07T03:04:41;18.65;;;16.73;;
21519;SDS011;10921;53.614;9.882;2023-04-07T03:07:07;17.92;;;16.10;;
21519;SDS011;10921;53.614;9.882;2023-04-07T03:09:34;19.10;;;16.98;;
21519;SDS011;10921;53.614;9.882;2023-04-07T03:12:00;18.27;;;16.48;;
21519;SDS011;10921;53.614;9.882;2023-04-07T03:14:27;18.73;;;16.73;;
21519;SDS011;10921;53.614;9.882;2023-04-07T03:16:53;19.45;;;16.42;;
21519;SDS011;10921;53.614;9.882;2023-04-07T03:19:21;18.63;;;15.38;;
21519;SDS011;10921;53.614;9.882;2023-04-07T03:21:48;21.13;;;17.40;;
21519;SDS011;10921;53.614;9.882;2023-04-07T03:24:14;18.83;;;16.30;;
21519;SDS011;10921;53.614;9.882;2023-04-07T03:26:41;18.20;;;16.23;;
21519;SDS011;10921;53.614;9.882;2023-04-07T03:29:08;18.20;;;16.30;;
21519;SDS011;10921;53.614;9.882;2023-04-07T03:31:34;17.15;;;15.45;;
21519;SDS011;10921;53.614;9.882;2023-04-07T03:34:03;18.05;;;16.20;;
21519;SDS011;10921;53.614;9.882;2023-04-07T03:36:29;17.40;;;15.60;;
21519;SDS011;10921;53.614;9.882;2023-04-07T03:38:56;19.20;;;15.65;;
21519;SDS011;10921;53.614;9.882;2023-04-07T03:41:23;17.73;;;15.77;;
21519;SDS011;10921;53.614;9.882;2023-04-07T03:43:50;17.45;;;15.25;;
21519;SDS011;10921;53.614;9.882;2023-04-07T03:46:20;17.77;;;15.40;;
21519;SDS011;10921;53.614;9.882;2023-04-07T03:48:46;18.80;;;15.88;;
21519;SDS011;10921;53.614;9.882;2023-04-07T03:51:14;20.92;;;15.68;;
21519;SDS011;10921;53.614;9.882;2023-04-07T03:53:41;17.02;;;15.32;;
21519;SDS011;10921;53.614;9.882;2023-04-07T03:56:07;18.10;;;15.50;;
21519;SDS011;10921;53.614;9.882;2023-04-07T03:58:34;16.73;;;15.02;;
21519;SDS011;10921;53.614;9.882;2023-04-07T04:01:01;18.95;;;16.95;;
21519;SDS011;10921;53.614;9.882;2023-04-07T04:03:28;16.83;;;15.00;;
21519;SDS011;10921;53.614;9.882;2023-04-07T04:05:54;17.38;;;15.18;;
21519;SDS011;10921;53.614;9.882;2023-04-07T04:08:21;17.67;;;15.88;;
21519;SDS011;10921;53.614;9.882;2023-04-07T04:10:47;17.92;;;16.15;;
21519;SDS011;10921;53.614;9.882;2023-04-07T04:13:14;17.65;;;15.80;;
21519;SDS011;10921;53.614;9.882;2023-04-07T04:15:40;18.63;;;16.73;;
21519;SDS011;10921;53.614;9.882;2023-04-07T04:18:07;17.45;;;15.70;;
21519;SDS011;10921;53.614;9.882;2023-04-07T04:20:33;19.67;;;17.38;;
21519;SDS011;10921;53.614;9.882;2023-04-07T04:23:00;18.42;;;16.63;;
21519;SDS011;10921;53.614;9.882;2023-04-07T04:25:27;18.15;;;15.93;;
21519;SDS011;10921;53.614;9.882;2023-04-07T04:27:53;21.92;;;15.63;;
21519;SDS011;10921;53.614;9.882;2023-04-07T04:30:19;18.83;;;16.90;;
21519;SDS011;10921;53.614;9.882;2023-04-07T04:32:46;17.70;;;15.85;;
21519;SDS011;10921;53.614;9.882;2023-04-07T04:35:13;20.63;;;16.88;;
21519;SDS011;10921;53.614;9.882;2023-04-07T04:37:39;18.73;;;15.82;;
21519;SDS011;10921;53.614;9.882;2023-04-07T04:40:06;18.35;;;16.40;;
21519;SDS011;10921;53.614;9.882;2023-04-07T04:42:33;18.15;;;16.25;;
21519;SDS011;10921;53.614;9.882;2023-04-07T04:45:01;19.00;;;17.00;;
21519;SDS011;10921;53.614;9.882;2023-04-07T04:47:28;18.40;;;16.38;;
21519;SDS011;10921;53.614;9.882;2023-04-07T04:49:54;18.08;;;16.27;;
21519;SDS011;10921;53.614;9.882;2023-04-07T04:52:21;17.20;;;15.38;;
21519;SDS011;10921;53.614;9.882;2023-04-07T04:54:51;18.67;;;16.35;;
21519;SDS011;10921;53.614;9.882;2023-04-07T04:57:20;20.63;;;18.13;;
21519;SDS011;10921;53.614;9.882;2023-04-07T04:59:47;18.08;;;16.23;;
21519;SDS011;10921;53.614;9.882;2023-04-07T05:02:13;19.77;;;16.63;;
21519;SDS011;10921;53.614;9.882;2023-04-07T05:04:41;18.58;;;16.70;;
21519;SDS011;10921;53.614;9.882;2023-04-07T05:07:07;19.45;;;16.45;;
21519;SDS011;10921;53.614;9.882;2023-04-07T05:09:34;18.95;;;16.95;;
21519;SDS011;10921;53.614;9.882;2023-04-07T05:12:00;17.58;;;15.82;;
21519;SDS011;10921;53.614;9.882;2023-04-07T05:14:27;19.08;;;15.98;;
21519;SDS011;10921;53.614;9.882;2023-04-07T05:16:54;17.45;;;15.70;;
21519;SDS011;10921;53.614;9.882;2023-04-07T05:19:20;18.52;;;16.55;;
21519;SDS011;10921;53.614;9.882;2023-04-07T05:21:47;18.02;;;15.65;;
21519;SDS011;10921;53.614;9.882;2023-04-07T05:24:13;18.73;;;16.77;;
21519;SDS011;10921;53.614;9.882;2023-04-07T05:26:40;18.02;;;16.23;;
21519;SDS011;10921;53.614;9.882;2023-04-07T05:29:06;17.77;;;15.95;;
21519;SDS011;10921;53.614;9.882;2023-04-07T05:31:32;16.95;;;15.15;;
21519;SDS011;10921;53.614;9.882;2023-04-07T05:34:02;18.85;;;16.17;;
21519;SDS011;10921;53.614;9.882;2023-04-07T05:36:29;19.40;;;15.88;;
21519;SDS011;10921;53.614;9.882;2023-04-07T05:38:56;19.95;;;16.63;;
21519;SDS011;10921;53.614;9.882;2023-04-07T05:41:23;18.55;;;15.43;;
21519;SDS011;10921;53.614;9.882;2023-04-07T05:43:49;17.98;;;16.02;;
21519;SDS011;10921;53.614;9.882;2023-04-07T05:46:16;19.38;;;15.73;;
21519;SDS011;10921;53.614;9.882;2023-04-07T05:48:42;18.13;;;15.63;;
21519;SDS011;10921;53.614;9.882;2023-04-07T05:51:09;18.15;;;15.60;;
21519;SDS011;10921;53.614;9.882;2023-04-07T05:53:36;16.95;;;15.25;;
21519;SDS011;10921;53.614;9.882;2023-04-07T05:56:02;17.17;;;15.38;;
21519;SDS011;10921;53.614;9.882;2023-04-07T05:58:29;18.77;;;15.95;;
21519;SDS011;10921;53.614;9.882;2023-04-07T06:00:55;18.25;;;15.77;;
21519;SDS011;10921;53.614;9.882;2023-04-07T06:03:22;17.60;;;15.82;;
21519;SDS011;10921;53.614;9.882;2023-04-07T06:05:48;17.63;;;15.73;;
21519;SDS011;10921;53.614;9.882;2023-04-07T06:08:15;16.80;;;15.10;;
21519;SDS011;10921;53.614;9.882;2023-04-07T06:10:42;16.38;;;14.68;;
21519;SDS011;10921;53.614;9.882;2023-04-07T06:13:09;17.17;;;15.50;;
21519;SDS011;10921;53.614;9.882;2023-04-07T06:15:35;16.77;;;15.13;;
21519;SDS011;10921;53.614;9.882;2023-04-07T06:18:02;19.30;;;14.98;;
21519;SDS011;10921;53.614;9.882;2023-04-07T06:20:29;16.10;;;14.60;;
21519;SDS011;10921;53.614;9.882;2023-04-07T06:22:56;16.98;;;15.23;;
21519;SDS011;10921;53.614;9.882;2023-04-07T06:25:22;16.50;;;14.88;;
21519;SDS011;10921;53.614;9.882;2023-04-07T06:27:49;16.67;;;15.02;;
21519;SDS011;10921;53.614;9.882;2023-04-07T06:30:15;16.70;;;14.95;;
21519;SDS011;10921;53.614;9.882;2023-04-07T06:32:42;17.73;;;15.63;;
21519;SDS011;10921;53.614;9.882;2023-04-07T06:35:08;16.52;;;14.90;;
21519;SDS011;10921;53.614;9.882;2023-04-07T06:37:35;16.27;;;14.55;;
21519;SDS011;10921;53.614;9.882;2023-04-07T06:40:01;17.02;;;15.30;;
21519;SDS011;10921;53.614;9.882;2023-04-07T06:42:28;17.25;;;15.50;;
21519;SDS011;10921;53.614;9.882;2023-04-07T06:44:55;17.75;;;15.85;;
21519;SDS011;10921;53.614;9.882;2023-04-07T06:47:22;17.58;;;15.75;;
21519;SDS011;10921;53.614;9.882;2023-04-07T06:49:49;17.40;;;15.60;;
21519;SDS011;10921;53.614;9.882;2023-04-07T06:52:16;20.75;;;16.33;;
21519;SDS011;10921;53.614;9.882;2023-04-07T06:54:42;19.67;;;16.55;;
21519;SDS011;10921;53.614;9.882;2023-04-07T06:57:09;18.27;;;15.75;;
21519;SDS011;10921;53.614;9.882;2023-04-07T06:59:37;18.27;;;16.23;;
21519;SDS011;10921;53.614;9.882;2023-04-07T07:02:04;17.15;;;15.40;;
21519;SDS011;10921;53.614;9.882;2023-04-07T07:04:33;19.67;;;16.60;;
21519;SDS011;10921;53.614;9.882;2023-04-07T07:07:00;17.98;;;16.13;;
21519;SDS011;10921;53.614;9.882;2023-04-07T07:09:26;18.13;;;16.17;;
21519;SDS011;10921;53.614;9.882;2023-04-07T07:11:53;20.75;;;15.98;;
21519;SDS011;10921;53.614;9.882;2023-04-07T07:14:19;21.48;;;17.10;;
21519;SDS011;10921;53.614;9.882;2023-04-07T07:16:46;19.55;;;17.15;;
21519;SDS011;10921;53.614;9.882;2023-04-07T07:19:12;16.77;;;15.07;;
21519;SDS011;10921;53.614;9.882;2023-04-07T07:21:40;18.90;;;15.95;;
21519;SDS011;10921;53.614;9.882;2023-04-07T07:24:06;21.05;;;15.63;;
21519;SDS011;10921;53.614;9.882;2023-04-07T07:26:33;17.98;;;15.23;;
21519;SDS011;10921;53.614;9.882;2023-04-07T07:28:59;16.90;;;15.15;;
21519;SDS011;10921;53.614;9.882;2023-04-07T07:31:26;16.58;;;14.77;;
21519;SDS011;10921;53.614;9.882;2023-04-07T07:33:53;16.77;;;15.00;;
21519;SDS011;10921;53.614;9.882;2023-04-07T07:36:19;16.70;;;14.95;;
21519;SDS011;10921;53.614;9.882;2023-04-07T07:38:46;17.95;;;15.10;;
21519;SDS011;10921;53.614;9.882;2023-04-07T07:41:15;16.40;;;14.77;;
21519;SDS011;10921;53.614;9.882;2023-04-07T07:43:42;16.85;;;15.02;;
21519;SDS011;10921;53.614;9.882;2023-04-07T07:46:08;15.10;;;13.48;;
21519;SDS011;10921;53.614;9.882;2023-04-07T07:48:35;16.60;;;13.85;;
21519;SDS011;10921;53.614;9.882;2023-04-07T07:51:01;16.52;;;14.10;;
21519;SDS011;10921;53.614;9.882;2023-04-07T07:53:28;17.65;;;15.35;;
21519;SDS011;10921;53.614;9.882;2023-04-07T07:55:54;16.63;;;14.90;;
21519;SDS011;10921;53.614;9.882;2023-04-07T07:58:21;16.00;;;14.32;;
21519;SDS011;10921;53.614;9.882;2023-04-07T08:00:48;17.40;;;14.10;;
21519;SDS011;10921;53.614;9.882;2023-04-07T08:03:15;15.52;;;13.98;;
21519;SDS011;10921;53.614;9.882;2023-04-07T08:05:42;19.20;;;14.43;;
21519;SDS011;10921;53.614;9.882;2023-04-07T08:08:09;15.75;;;14.15;;
21519;SDS011;10921;53.614;9.882;2023-04-07T08:10:36;20.23;;;13.93;;
21519;SDS011;10921;53.614;9.882;2023-04-07T08:13:02;15.95;;;14.13;;
21519;SDS011;10921;53.614;9.882;2023-04-07T08:15:30;15.90;;;14.20;;
21519;SDS011;10921;53.614;9.882;2023-04-07T08:17:56;17.02;;;13.88;;
21519;SDS011;10921;53.614;9.882;2023-04-07T08:20:26;16.10;;;13.90;;
21519;SDS011;10921;53.614;9.882;2023-04-07T08:22:53;16.45;;;13.88;;
21519;SDS011;10921;53.614;9.882;2023-04-07T08:25:19;15.43;;;13.93;;
21519;SDS011;10921;53.614;9.882;2023-04-07T08:27:46;19.13;;;13.98;;
21519;SDS011;10921;53.614;9.882;2023-04-07T08:30:12;15.55;;;14.00;;
21519;SDS011;10921;53.614;9.882;2023-04-07T08:32:41;15.23;;;13.57;;
21519;SDS011;10921;53.614;9.882;2023-04-07T08:35:09;14.98;;;13.50;;
21519;SDS011;10921;53.614;9.882;2023-04-07T08:37:37;17.10;;;15.07;;
21519;SDS011;10921;53.614;9.882;2023-04-07T08:40:05;15.82;;;14.18;;
21519;SDS011;10921;53.614;9.882;2023-04-07T08:42:32;15.82;;;14.15;;
21519;SDS011;10921;53.614;9.882;2023-04-07T08:45:01;15.77;;;14.13;;
21519;SDS011;10921;53.614;9.882;2023-04-07T08:47:31;15.07;;;13.52;;
21519;SDS011;10921;53.614;9.882;2023-04-07T08:50:05;14.52;;;13.15;;
21519;SDS011;10921;53.614;9.882;2023-04-07T08:52:33;14.60;;;13.02;;
21519;SDS011;10921;53.614;9.882;2023-04-07T08:55:09;14.60;;;13.10;;
21519;SDS011;10921;53.614;9.882;2023-04-07T08:57:36;16.13;;;13.77;;
21519;SDS011;10921;53.614;9.882;2023-04-07T09:00:03;16.05;;;14.40;;
21519;SDS011;10921;53.614;9.882;2023-04-07T09:02:38;17.92;;;13.50;;
21519;SDS011;10921;53.614;9.882;2023-04-07T09:05:06;17.02;;;13.35;;
21519;SDS011;10921;53.614;9.882;2023-04-07T09:07:34;15.52;;;14.10;;
21519;SDS011;10921;53.614;9.882;2023-04-07T09:10:02;15.00;;;13.45;;
21519;SDS011;10921;53.614;9.882;2023-04-07T09:12:30;14.80;;;13.27;;
21519;SDS011;10921;53.614;9.882;2023-04-07T09:14:59;18.00;;;16.23;;
21519;SDS011;10921;53.614;9.882;2023-04-07T09:17:26;17.05;;;15.52;;
21519;SDS011;10921;53.614;9.882;2023-04-07T09:19:57;16.60;;;14.80;;
21519;SDS011;10921;53.614;9.882;2023-04-07T09:22:34;17.08;;;15.38;;
21519;SDS011;10921;53.614;9.882;2023-04-07T09:25:08;15.82;;;13.65;;
21519;SDS011;10921;53.614;9.882;2023-04-07T09:30:26;18.67;;;16.58;;
21519;SDS011;10921;53.614;9.882;2023-04-07T09:32:53;16.27;;;14.18;;
21519;SDS011;10921;53.614;9.882;2023-04-07T09:35:21;15.63;;;14.10;;
21519;SDS011;10921;53.614;9.882;2023-04-07T09:38:08;16.77;;;14.25;;
21519;SDS011;10921;53.614;9.882;2023-04-07T09:40:35;17.50;;;14.98;;
21519;SDS011;10921;53.614;9.882;2023-04-07T09:43:05;14.40;;;13.05;;
21519;SDS011;10921;53.614;9.882;2023-04-07T09:45:32;15.10;;;13.70;;
21519;SDS011;10921;53.614;9.882;2023-04-07T09:48:05;15.60;;;14.10;;
21519;SDS011;10921;53.614;9.882;2023-04-07T09:50:33;18.20;;;16.23;;
21519;SDS011;10921;53.614;9.882;2023-04-07T09:53:00;17.75;;;16.15;;
21519;SDS011;10921;53.614;9.882;2023-04-07T09:55:28;17.55;;;15.85;;
21519;SDS011;10921;53.614;9.882;2023-04-07T09:57:56;18.20;;;16.40;;
21519;SDS011;10921;53.614;9.882;2023-04-07T10:00:23;17.60;;;16.00;;
21519;SDS011;10921;53.614;9.882;2023-04-07T10:02:50;18.70;;;16.73;;
21519;SDS011;10921;53.614;9.882;2023-04-07T10:05:18;18.25;;;16.55;;
21519;SDS011;10921;53.614;9.882;2023-04-07T10:07:51;18.40;;;16.48;;
21519;SDS011;10921;53.614;9.882;2023-04-07T10:10:18;17.40;;;15.70;;
21519;SDS011;10921;53.614;9.882;2023-04-07T10:12:44;16.85;;;15.13;;
21519;SDS011;10921;53.614;9.882;2023-04-07T10:15:12;16.83;;;15.32;;
21519;SDS011;10921;53.614;9.882;2023-04-07T10:17:45;16.17;;;14.77;;
21519;SDS011;10921;53.614;9.882;2023-04-07T10:20:17;15.98;;;14.48;;
21519;SDS011;10921;53.614;9.882;2023-04-07T10:22:52;14.85;;;12.48;;
21519;SDS011;10921;53.614;9.882;2023-04-07T10:25:37;15.45;;;13.98;;
21519;SDS011;10921;53.614;9.882;2023-04-07T10:28:05;14.55;;;13.07;;
21519;SDS011;10921;53.614;9.882;2023-04-07T10:30:34;15.60;;;14.20;;
21519;SDS011;10921;53.614;9.882;2023-04-07T10:33:01;15.35;;;13.95;;
21519;SDS011;10921;53.614;9.882;2023-04-07T10:35:54;16.55;;;14.77;;
21519;SDS011;10921;53.614;9.882;2023-04-07T10:38:31;16.20;;;14.77;;
21519;SDS011;10921;53.614;9.882;2023-04-07T10:40:58;16.23;;;14.73;;
21519;SDS011;10921;53.614;9.882;2023-04-07T10:43:37;16.33;;;14.82;;
21519;SDS011;10921;53.614;9.882;2023-04-07T10:46:07;15.35;;;13.77;;
21519;SDS011;10921;53.614;9.882;2023-04-07T10:48:33;15.15;;;13.77;;
21519;SDS011;10921;53.614;9.882;2023-04-07T10:53:29;15.95;;;14.45;;
21519;SDS011;10921;53.614;9.882;2023-04-07T10:56:05;16.15;;;14.63;;
21519;SDS011;10921;53.614;9.882;2023-04-07T10:58:32;15.18;;;13.77;;
21519;SDS011;10921;53.614;9.882;2023-04-07T11:03:26;14.32;;;12.80;;
21519;SDS011;10921;53.614;9.882;2023-04-07T11:11:02;16.08;;;14.43;;
21519;SDS011;10921;53.614;9.882;2023-04-07T11:16:07;16.15;;;14.60;;
21519;SDS011;10921;53.614;9.882;2023-04-07T11:18:35;17.10;;;15.45;;
21519;SDS011;10921;53.614;9.882;2023-04-07T11:21:02;16.45;;;14.73;;
21519;SDS011;10921;53.614;9.882;2023-04-07T11:23:40;15.50;;;14.20;;
21519;SDS011;10921;53.614;9.882;2023-04-07T11:26:09;16.17;;;14.57;;
21519;SDS011;10921;53.614;9.882;2023-04-07T11:28:49;15.82;;;14.45;;
21519;SDS011;10921;53.614;9.882;2023-04-07T11:31:24;16.85;;;15.02;;
21519;SDS011;10921;53.614;9.882;2023-04-07T11:33:52;16.27;;;14.60;;
21519;SDS011;10921;53.614;9.882;2023-04-07T11:36:27;16.40;;;14.90;;
21519;SDS011;10921;53.614;9.882;2023-04-07T11:38:56;16.55;;;15.05;;
21519;SDS011;10921;53.614;9.882;2023-04-07T11:41:24;15.60;;;14.00;;
21519;SDS011;10921;53.614;9.882;2023-04-07T11:44:08;16.48;;;14.77;;
21519;SDS011;10921;53.614;9.882;2023-04-07T11:46:36;16.63;;;15.20;;
21519;SDS011;10921;53.614;9.882;2023-04-07T11:49:18;16.77;;;15.10;;
21519;SDS011;10921;53.614;9.882;2023-04-07T11:51:45;15.60;;;14.23;;
21519;SDS011;10921;53.614;9.882;2023-04-07T11:54:12;15.63;;;14.30;;
21519;SDS011;10921;53.614;9.882;2023-04-07T11:56:45;16.38;;;14.90;;
21519;SDS011;10921;53.614;9.882;2023-04-07T11:59:22;16.20;;;14.65;;
21519;SDS011;10921;53.614;9.882;2023-04-07T12:01:51;16.27;;;14.73;;
21519;SDS011;10921;53.614;9.882;2023-04-07T12:04:22;16.10;;;14.50;;
21519;SDS011;10921;53.614;9.882;2023-04-07T12:06:49;15.18;;;13.77;;
21519;SDS011;10921;53.614;9.882;2023-04-07T12:11:52;14.82;;;13.40;;
21519;SDS011;10921;53.614;9.882;2023-04-07T12:14:19;14.90;;;13.57;;
21519;SDS011;10921;53.614;9.882;2023-04-07T12:16:46;15.77;;;14.40;;
21519;SDS011;10921;53.614;9.882;2023-04-07T12:19:12;14.98;;;13.70;;
21519;SDS011;10921;53.614;9.882;2023-04-07T12:21:39;16.30;;;14.60;;
21519;SDS011;10921;53.614;9.882;2023-04-07T12:24:08;16.73;;;15.02;;
21519;SDS011;10921;53.614;9.882;2023-04-07T12:26:34;15.65;;;14.15;;
21519;SDS011;10921;53.614;9.882;2023-04-07T12:29:01;15.88;;;14.43;;
21519;SDS011;10921;53.614;9.882;2023-04-07T12:31:30;13.63;;;12.25;;
21519;SDS011;10921;53.614;9.882;2023-04-07T12:33:58;13.20;;;11.88;;
21519;SDS011;10921;53.614;9.882;2023-04-07T12:36:25;15.65;;;14.20;;
21519;SDS011;10921;53.614;9.882;2023-04-07T12:38:55;13.05;;;11.95;;
21519;SDS011;10921;53.614;9.882;2023-04-07T12:41:22;12.32;;;11.18;;
21519;SDS011;10921;53.614;9.882;2023-04-07T12:43:50;12.57;;;11.38;;
21519;SDS011;10921;53.614;9.882;2023-04-07T12:46:17;13.68;;;12.20;;
21519;SDS011;10921;53.614;9.882;2023-04-07T12:48:44;13.38;;;12.13;;
21519;SDS011;10921;53.614;9.882;2023-04-07T12:51:11;13.10;;;11.90;;
21519;SDS011;10921;53.614;9.882;2023-04-07T12:53:37;12.80;;;11.57;;
21519;SDS011;10921;53.614;9.882;2023-04-07T12:56:04;14.23;;;11.35;;
21519;SDS011;10921;53.614;9.882;2023-04-07T12:58:30;12.80;;;11.50;;
21519;SDS011;10921;53.614;9.882;2023-04-07T13:00:57;12.77;;;11.65;;
21519;SDS011;10921;53.614;9.882;2023-04-07T13:03:23;12.00;;;11.00;;
21519;SDS011;10921;53.614;9.882;2023-04-07T13:05:50;12.93;;;11.63;;
21519;SDS011;10921;53.614;9.882;2023-04-07T13:08:19;13.23;;;12.05;;
21519;SDS011;10921;53.614;9.882;2023-04-07T13:10:46;12.75;;;11.55;;
21519;SDS011;10921;53.614;9.882;2023-04-07T13:13:13;12.63;;;11.52;;
21519;SDS011;10921;53.614;9.882;2023-04-07T13:15:39;12.35;;;11.25;;
21519;SDS011;10921;53.614;9.882;2023-04-07T13:18:05;11.55;;;10.50;;
21519;SDS011;10921;53.614;9.882;2023-04-07T13:20:33;11.93;;;10.93;;
21519;SDS011;10921;53.614;9.882;2023-04-07T13:22:59;12.05;;;11.02;;
21519;SDS011;10921;53.614;9.882;2023-04-07T13:25:34;12.18;;;11.05;;
21519;SDS011;10921;53.614;9.882;2023-04-07T13:28:01;12.10;;;11.00;;
21519;SDS011;10921;53.614;9.882;2023-04-07T13:30:28;13.00;;;11.25;;
21519;SDS011;10921;53.614;9.882;2023-04-07T13:32:55;14.20;;;13.00;;
21519;SDS011;10921;53.614;9.882;2023-04-07T13:35:22;13.38;;;11.93;;
21519;SDS011;10921;53.614;9.882;2023-04-07T13:37:49;12.68;;;11.52;;
21519;SDS011;10921;53.614;9.882;2023-04-07T13:40:15;11.75;;;10.80;;
21519;SDS011;10921;53.614;9.882;2023-04-07T13:42:42;11.75;;;10.50;;
21519;SDS011;10921;53.614;9.882;2023-04-07T13:45:08;10.88;;;10.07;;
21519;SDS011;10921;53.614;9.882;2023-04-07T13:47:35;11.90;;;10.90;;
21519;SDS011;10921;53.614;9.882;2023-04-07T13:50:02;12.70;;;11.70;;
21519;SDS011;10921;53.614;9.882;2023-04-07T13:52:29;12.32;;;11.25;;
21519;SDS011;10921;53.614;9.882;2023-04-07T13:54:57;12.38;;;11.30;;
21519;SDS011;10921;53.614;9.882;2023-04-07T13:57:24;12.48;;;11.48;;
21519;SDS011;10921;53.614;9.882;2023-04-07T13:59:51;12.38;;;11.35;;
21519;SDS011;10921;53.614;9.882;2023-04-07T14:02:17;12.45;;;11.13;;
21519;SDS011;10921;53.614;9.882;2023-04-07T14:04:45;13.20;;;12.10;;
21519;SDS011;10921;53.614;9.882;2023-04-07T14:07:11;12.73;;;11.63;;
21519;SDS011;10921;53.614;9.882;2023-04-07T14:09:38;12.13;;;11.10;;
21519;SDS011;10921;53.614;9.882;2023-04-07T14:12:05;13.32;;;11.93;;
21519;SDS011;10921;53.614;9.882;2023-04-07T14:14:32;12.32;;;11.35;;
21519;SDS011;10921;53.614;9.882;2023-04-07T14:16:58;12.70;;;11.60;;
21519;SDS011;10921;53.614;9.882;2023-04-07T14:19:25;13.98;;;11.88;;
21519;SDS011;10921;53.614;9.882;2023-04-07T14:21:51;12.43;;;11.32;;
21519;SDS011;10921;53.614;9.882;2023-04-07T14:24:18;13.10;;;11.95;;
21519;SDS011;10921;53.614;9.882;2023-04-07T14:26:45;12.40;;;11.40;;
21519;SDS011;10921;53.614;9.882;2023-04-07T14:29:12;12.30;;;11.23;;
21519;SDS011;10921;53.614;9.882;2023-04-07T14:31:39;12.40;;;11.23;;
21519;SDS011;10921;53.614;9.882;2023-04-07T14:34:06;14.05;;;12.85;;
21519;SDS011;10921;53.614;9.882;2023-04-07T14:36:33;15.00;;;12.25;;
21519;SDS011;10921;53.614;9.882;2023-04-07T14:39:00;12.52;;;11.38;;
21519;SDS011;10921;53.614;9.882;2023-04-07T14:41:27;13.18;;;11.80;;
21519;SDS011;10921;53.614;9.882;2023-04-07T14:43:53;14.93;;;11.93;;
21519;SDS011;10921;53.614;9.882;2023-04-07T14:46:24;12.43;;;11.43;;
21519;SDS011;10921;53.614;9.882;2023-04-07T14:48:52;14.25;;;12.80;;
21519;SDS011;10921;53.614;9.882;2023-04-07T14:51:19;14.48;;;12.60;;